Time;durP1;ratioP1;P1;durP2;ratioP2;P2;SDS_P1;SDS_P2;PMS_P1;PMS_P2;Temp;Humidity;BMP_temperature;BMP_pressure;BME280_temperature;BME280_humidity;BME280_pressure;Samples;Min_cycle;Max_cycle;Signal;HPM_P1;HPM_P2
2022/08/31 00:09:36;;;;;;;5.23;4.73;;;;;23.20;98920.00;;;;16645150;28;20828;-49
2022/08/31 00:17:40;;;;;;;4.83;4.43;;;;;22.40;98918.00;;;;16656376;28;20289;-48
2022/08/31 00:25:46;;;;;;;5.60;5.10;;;;;21.80;98930.00;;;;16652173;28;20290;-47
2022/08/31 00:33:51;;;;;;;8.03;7.30;;;;;21.40;98942.00;;;;16647481;28;20226;-49
2022/08/31 00:41:53;;;;;;;8.40;7.57;;;;;20.30;98952.00;;;;16648224;28;20218;-49
2022/08/31 00:49:57;;;;;;;10.50;9.50;;;;;19.70;98988.00;;;;16656369;28;20765;-49
2022/08/31 00:58:02;;;;;;;8.97;8.07;;;;;20.20;99012.00;;;;16649988;28;20249;-49
2022/08/31 01:06:07;;;;;;;8.90;8.20;;;;;20.60;99017.00;;;;16618798;28;20676;-49
2022/08/31 01:14:09;;;;;;;8.97;8.07;;;;;20.80;99029.00;;;;16647527;28;20709;-48
2022/08/31 01:22:19;;;;;;;12.10;9.30;;;;;20.30;99032.00;;;;16654278;28;20222;-49
2022/08/31 01:30:25;;;;;;;13.23;10.03;;;;;19.80;99047.00;;;;16653184;28;20233;-49
2022/08/31 01:38:28;;;;;;;12.70;11.40;;;;;19.70;99062.00;;;;16625788;28;20227;-49
2022/08/31 01:46:32;;;;;;;16.00;11.80;;;;;19.40;99041.00;;;;16644279;28;20593;-49
2022/08/31 01:54:36;;;;;;;13.23;11.60;;;;;19.30;99039.00;;;;16652323;28;20769;-49
2022/08/31 02:02:40;;;;;;;13.37;12.10;;;;;19.30;99040.00;;;;16652293;28;20591;-49
2022/08/31 02:10:43;;;;;;;13.97;12.57;;;;;19.50;99036.00;;;;16636567;28;20230;-48
2022/08/31 02:18:47;;;;;;;13.27;12.07;;;;;19.50;99031.00;;;;16651239;28;20671;-49
2022/08/31 02:26:49;;;;;;;15.70;13.13;;;;;19.90;99029.00;;;;16651649;28;20203;-49
2022/08/31 02:34:53;;;;;;;14.57;13.17;;;;;19.70;99035.00;;;;16647722;28;20309;-49
2022/08/31 02:42:56;;;;;;;15.90;13.67;;;;;20.60;99051.00;;;;16649745;28;20685;-48
2022/08/31 02:51:06;;;;;;;16.00;14.00;;;;;20.50;99041.00;;;;16664017;28;20648;-49
2022/08/31 02:59:09;;;;;;;14.40;12.97;;;;;19.90;99035.00;;;;16663557;28;20635;-48
2022/08/31 03:07:13;;;;;;;15.13;13.83;;;;;20.40;99035.00;;;;16655480;28;20220;-48
2022/08/31 03:15:16;;;;;;;15.60;14.03;;;;;21.00;99054.00;;;;16662424;28;20235;-48
2022/08/31 03:23:22;;;;;;;13.60;12.27;;;;;19.70;99038.00;;;;16661635;28;20218;-48
2022/08/31 03:31:26;;;;;;;15.97;14.57;;;;;19.90;99038.00;;;;16661963;28;20227;-48
2022/08/31 03:39:31;;;;;;;14.70;13.47;;;;;19.80;99023.00;;;;16641340;28;20241;-49
2022/08/31 03:47:34;;;;;;;15.90;14.30;;;;;19.70;99020.00;;;;16660193;28;20222;-48
2022/08/31 03:55:41;;;;;;;16.17;14.67;;;;;20.40;99036.00;;;;16659634;28;20311;-48
2022/08/31 04:03:44;;;;;;;16.70;15.00;;;;;19.60;99049.00;;;;16749723;22;20243;-83
2022/08/31 04:12:07;;;;;;;14.17;13.03;;;;;19.40;99064.00;;;;16718974;28;20314;-83
2022/08/31 04:20:33;;;;;;;15.47;14.07;;;;;19.40;99064.00;;;;16691475;28;20226;-84
2022/08/31 04:28:37;;;;;;;16.90;15.30;;;;;19.40;99071.00;;;;16662154;28;20230;-82
2022/08/31 04:36:39;;;;;;;14.73;13.47;;;;;19.50;99066.00;;;;16695149;28;20784;-83
2022/08/31 04:44:43;;;;;;;16.67;15.17;;;;;19.30;99077.00;;;;16725181;28;20240;-83
2022/08/31 04:52:49;;;;;;;16.07;14.63;;;;;19.40;99076.00;;;;16717087;28;20294;-83
2022/08/31 05:00:53;;;;;;;15.60;14.10;;;;;19.70;99082.00;;;;16706203;28;20253;-83
2022/08/31 05:09:18;;;;;;;16.57;14.83;;;;;19.60;99074.00;;;;16689051;28;20240;-83
2022/08/31 05:17:24;;;;;;;15.20;13.77;;;;;20.10;99086.00;;;;16682080;28;20226;-84
2022/08/31 05:25:27;;;;;;;14.57;13.27;;;;;19.90;99081.00;;;;16669689;28;20230;-83
2022/08/31 05:33:31;;;;;;;16.97;15.30;;;;;20.00;99087.00;;;;16662700;28;20245;-83
2022/08/31 05:41:33;;;;;;;16.73;15.23;;;;;19.70;99103.00;;;;16660095;28;20222;-84
2022/08/31 05:49:38;;;;;;;16.10;14.70;;;;;19.80;99107.00;;;;16674428;22;20255;-46
2022/08/31 05:57:41;;;;;;;15.50;14.10;;;;;19.70;99119.00;;;;16593808;28;20220;-47
2022/08/31 06:05:45;;;;;;;16.77;15.17;;;;;20.00;99124.00;;;;16598809;28;20253;-47
2022/08/31 06:13:50;;;;;;;16.27;14.77;;;;;20.20;99126.00;;;;16625200;28;20232;-47
2022/08/31 06:21:54;;;;;;;17.63;15.97;;;;;19.80;99118.00;;;;16647466;28;20244;-47
2022/08/31 06:30:02;;;;;;;15.57;14.23;;;;;19.50;99126.00;;;;16602634;28;20296;-47
2022/08/31 06:38:06;;;;;;;15.83;14.43;;;;;19.50;99127.00;;;;16635055;28;20297;-47
2022/08/31 06:46:41;;;;;;;17.90;16.27;;;;;19.70;99121.00;;;;16629614;28;20203;-47
2022/08/31 06:54:56;;;;;;;17.03;15.50;;;;;19.60;99135.00;;;;16611189;28;20234;-47
2022/08/31 07:03:23;;;;;;;16.20;14.90;;;;;19.70;99136.00;;;;16601206;28;20223;-47
2022/08/31 07:11:32;;;;;;;17.80;16.20;;;;;19.80;99137.00;;;;16581100;28;20344;-47
2022/08/31 07:19:35;;;;;;;16.57;15.17;;;;;20.00;99141.00;;;;16609066;28;20226;-47
2022/08/31 07:27:41;;;;;;;16.17;14.63;;;;;19.90;99147.00;;;;16583736;28;20199;-47
2022/08/31 07:35:43;;;;;;;14.77;13.30;;;;;19.80;99146.00;;;;16585761;28;20419;-47
2022/08/31 07:43:55;;;;;;;14.13;12.80;;;;;19.90;99147.00;;;;16592971;28;20808;-47
2022/08/31 07:51:59;;;;;;;14.17;12.87;;;;;19.70;99145.00;;;;16583426;28;20321;-47
2022/08/31 08:00:23;;;;;;;15.60;14.10;;;;;19.80;99145.00;;;;16625225;28;20227;-47
2022/08/31 08:08:26;;;;;;;13.03;11.93;;;;;20.00;99138.00;;;;16570215;28;20223;-47
2022/08/31 08:16:34;;;;;;;12.43;11.30;;;;;20.00;99146.00;;;;16633126;28;20229;-47
2022/08/31 08:25:07;;;;;;;13.03;12.00;;;;;20.00;99161.00;;;;16627789;28;20234;-46
2022/08/31 08:33:29;;;;;;;13.37;12.20;;;;;20.10;99169.00;;;;16575787;28;20235;-48
2022/08/31 08:41:34;;;;;;;13.03;11.93;;;;;20.30;99181.00;;;;16635867;28;20590;-47
2022/08/31 08:49:42;;;;;;;13.40;12.10;;;;;20.30;99187.00;;;;16658234;28;20241;-47
2022/08/31 08:57:50;;;;;;;13.20;12.00;;;;;20.40;99180.00;;;;16624995;28;20308;-47
2022/08/31 09:06:05;;;;;;;14.90;13.50;;;;;20.50;99189.00;;;;16631692;28;20198;-47
2022/08/31 09:14:19;;;;;;;12.47;11.40;;;;;20.40;99191.00;;;;16641232;28;20337;-47
2022/08/31 09:22:24;;;;;;;11.27;10.27;;;;;20.60;99184.00;;;;16628697;28;20232;-46
2022/08/31 09:30:40;;;;;;;12.57;11.37;;;;;20.90;99196.00;;;;16632586;28;20305;-47
2022/08/31 09:38:45;;;;;;;11.60;10.40;;;;;20.90;99197.00;;;;16644968;28;20380;-47
2022/08/31 09:46:49;;;;;;;12.20;11.00;;;;;21.10;99187.00;;;;16589660;28;20200;-48
2022/08/31 09:55:13;;;;;;;10.60;9.70;;;;;21.20;99186.00;;;;16610019;28;20234;-47
2022/08/31 10:03:20;;;;;;;10.87;9.87;;;;;21.00;99198.00;;;;16650421;22;20256;-47
2022/08/31 10:11:29;;;;;;;12.53;10.70;;;;;21.00;99192.00;;;;16624972;28;20249;-47
2022/08/31 10:19:43;;;;;;;12.87;9.90;;;;;21.10;99189.00;;;;16600506;28;20238;-49
2022/08/31 10:27:52;;;;;;;10.20;9.10;;;;;21.30;99187.00;;;;16636936;28;20571;-49
2022/08/31 10:35:56;;;;;;;10.57;9.53;;;;;21.60;99190.00;;;;16615797;28;20218;-49
2022/08/31 10:44:06;;;;;;;10.43;9.33;;;;;21.90;99187.00;;;;16638468;28;20709;-48
2022/08/31 10:52:17;;;;;;;9.80;9.00;;;;;22.20;99190.00;;;;16636854;28;20307;-48
2022/08/31 11:08:48;;;;;;;10.70;9.70;;;;;21.70;99196.00;;;;16641606;28;20241;-48
2022/08/31 11:17:07;;;;;;;10.27;9.47;;;;;21.50;99202.00;;;;16606415;28;20687;-48
2022/08/31 11:25:29;;;;;;;10.43;9.43;;;;;21.40;99190.00;;;;16598144;28;20239;-48
2022/08/31 11:33:33;;;;;;;10.50;9.50;;;;;21.20;99185.00;;;;16633478;28;20227;-47
2022/08/31 11:41:40;;;;;;;11.70;10.67;;;;;21.30;99191.00;;;;16642709;28;20223;-48
2022/08/31 11:49:46;;;;;;;12.10;10.90;;;;;21.30;99196.00;;;;16653592;28;20214;-48
2022/08/31 11:58:24;;;;;;;12.60;11.50;;;;;21.00;99189.00;;;;16660644;28;20311;-48
2022/08/31 12:07:06;;;;;;;11.87;10.67;;;;;21.30;99176.00;;;;16598834;28;20200;-48
2022/08/31 12:15:19;;;;;;;13.57;11.37;;;;;21.40;99178.00;;;;16594081;28;20595;-48
2022/08/31 12:23:37;;;;;;;12.87;11.67;;;;;21.00;99171.00;;;;16593978;28;20310;-49
2022/08/31 12:31:42;;;;;;;11.40;10.50;;;;;21.20;99173.00;;;;16614361;28;20253;-48
2022/08/31 12:39:44;;;;;;;12.23;11.23;;;;;21.50;99160.00;;;;16659112;28;20226;-49
2022/08/31 12:47:55;;;;;;;13.63;11.27;;;;;22.20;99163.00;;;;16654423;28;20236;-48
2022/08/31 12:56:01;;;;;;;10.50;9.43;;;;;23.50;99147.00;;;;16648476;28;20338;-48
2022/08/31 13:04:05;;;;;;;10.57;9.67;;;;;22.60;99149.00;;;;16637070;28;20603;-49
2022/08/31 13:12:08;;;;;;;10.60;9.60;;;;;23.90;99127.00;;;;16656789;28;20219;-49
2022/08/31 13:20:18;;;;;;;10.20;9.20;;;;;23.00;99127.00;;;;16656014;28;20334;-48
2022/08/31 13:28:29;;;;;;;11.53;8.20;;;;;23.70;99109.00;;;;16652617;28;20307;-49
2022/08/31 13:36:35;;;;;;;9.23;8.27;;;;;24.20;99101.00;;;;16646535;28;20226;-48
2022/08/31 13:44:41;;;;;;;9.13;7.77;;;;;27.60;99079.00;;;;16619831;28;20220;-49
2022/08/31 13:52:51;;;;;;;9.20;8.50;;;;;28.20;99073.00;;;;16588566;28;20281;-48
2022/08/31 14:01:11;;;;;;;8.17;7.47;;;;;28.50;99067.00;;;;16603460;28;20223;-49
2022/08/31 14:09:16;;;;;;;8.00;7.20;;;;;29.80;99063.00;;;;16654099;28;20225;-49
2022/08/31 14:17:21;;;;;;;7.47;6.87;;;;;27.90;99065.00;;;;16653651;28;20210;-49
2022/08/31 14:25:25;;;;;;;8.23;7.23;;;;;30.70;99054.00;;;;16652433;28;20219;-49
2022/08/31 14:33:28;;;;;;;7.90;7.20;;;;;28.90;99056.00;;;;16641842;28;20222;-49
2022/08/31 14:41:32;;;;;;;6.77;6.17;;;;;31.70;99037.00;;;;16663638;28;20222;-50
2022/08/31 14:49:35;;;;;;;7.57;6.77;;;;;31.10;99037.00;;;;16665911;28;20277;-50
2022/08/31 14:57:42;;;;;;;7.37;6.77;;;;;31.40;99033.00;;;;16649109;28;20230;-49
2022/08/31 15:05:47;;;;;;;6.80;6.30;;;;;31.00;99060.00;;;;16647522;28;20325;-49
2022/08/31 15:13:53;;;;;;;12.23;9.00;;;;;25.40;99098.00;;;;16655697;28;20296;-49
2022/08/31 15:21:59;;;;;;;12.50;8.10;;;;;24.50;99111.00;;;;16664289;28;20260;-48
2022/08/31 15:30:06;;;;;;;12.73;11.33;;;;;23.40;99133.00;;;;16653874;28;20215;-47
2022/08/31 15:38:10;;;;;;;10.77;9.70;;;;;22.30;99101.00;;;;16532260;28;20223;-48
2022/08/31 15:46:14;;;;;;;11.47;10.30;;;;;20.10;99095.00;;;;16534060;28;20283;-47
2022/08/31 15:54:18;;;;;;;14.60;13.10;;;;;20.20;99092.00;;;;16597529;28;20746;-48
2022/08/31 16:02:22;;;;;;;13.87;12.57;;;;;19.90;99091.00;;;;16646413;22;20908;-81
2022/08/31 16:10:26;;;;;;;12.30;11.30;;;;;21.10;99077.00;;;;16661542;28;20256;-81
2022/08/31 16:18:31;;;;;;;9.77;8.97;;;;;21.50;99061.00;;;;16649970;28;20222;-81
2022/08/31 16:26:38;;;;;;;11.17;9.90;;;;;22.30;99057.00;;;;16666477;28;20250;-82
2022/08/31 16:34:42;;;;;;;10.63;9.67;;;;;21.60;99043.00;;;;16644852;28;20227;-82
2022/08/31 16:42:45;;;;;;;10.87;9.37;;;;;21.70;99044.00;;;;16657254;28;20765;-82
2022/08/31 16:50:48;;;;;;;9.77;8.87;;;;;21.70;99052.00;;;;16669598;28;20195;-82
2022/08/31 16:58:51;;;;;;;11.33;10.23;;;;;21.30;99051.00;;;;16664320;28;20243;-81
2022/08/31 17:06:56;;;;;;;12.43;9.77;;;;;21.80;99047.00;;;;16646388;28;20241;-81
2022/08/31 17:14:59;;;;;;;10.13;9.33;;;;;21.30;99049.00;;;;16653423;28;20678;-81
2022/08/31 17:23:05;;;;;;;12.40;11.30;;;;;21.40;99051.00;;;;16689449;28;20218;-82
2022/08/31 17:31:07;;;;;;;13.73;12.30;;;;;21.60;99047.00;;;;16636397;28;20675;-81
2022/08/31 17:39:11;;;;;;;13.10;11.90;;;;;21.70;99038.00;;;;16667533;28;20222;-81
2022/08/31 17:47:15;;;;;;;14.27;13.07;;;;;20.70;99063.00;;;;16656855;28;20222;-81
2022/08/31 17:55:19;;;;;;;14.67;13.47;;;;;20.70;99066.00;;;;16628374;28;20220;-81
2022/08/31 18:03:21;;;;;;;16.90;12.67;;;;;20.50;99074.00;;;;16642731;28;20257;-81
2022/08/31 18:11:26;;;;;;;14.07;12.90;;;;;20.00;99080.00;;;;16662659;28;20205;-81
2022/08/31 18:19:30;;;;;;;14.07;12.97;;;;;19.00;99095.00;;;;16663991;28;20266;-81
2022/08/31 18:27:41;;;;;;;15.83;14.53;;;;;18.70;99116.00;;;;16641898;28;20262;-81
2022/08/31 18:35:47;;;;;;;17.60;15.80;;;;;18.60;99112.00;;;;16667212;28;20229;-81
2022/08/31 18:52:14;;;;;;;16.40;14.87;;;;;18.40;99120.00;;;;16680807;28;20199;-81
2022/08/31 19:00:18;;;;;;;18.67;16.50;;;;;18.20;99120.00;;;;16644607;28;20231;-81
2022/08/31 19:08:21;;;;;;;17.70;16.20;;;;;18.50;99120.00;;;;16601036;28;20223;-81
2022/08/31 19:16:27;;;;;;;17.53;15.93;;;;;18.30;99115.00;;;;16575579;28;20223;-81
2022/08/31 19:24:29;;;;;;;17.93;16.53;;;;;18.30;99117.00;;;;16588029;28;20291;-81
2022/08/31 19:32:35;;;;;;;20.27;18.40;;;;;18.20;99121.00;;;;16644099;28;20223;-80
2022/08/31 19:40:39;;;;;;;19.80;18.20;;;;;18.20;99119.00;;;;16678128;28;20214;-81
2022/08/31 19:48:44;;;;;;;18.97;17.47;;;;;18.50;99120.00;;;;16657720;28;20231;-81
2022/08/31 19:56:46;;;;;;;19.10;17.50;;;;;18.00;99110.00;;;;16593186;28;20253;-81
2022/08/31 20:04:50;;;;;;;20.03;18.20;;;;;17.90;99111.00;;;;16646753;28;20234;-81
2022/08/31 20:12:54;;;;;;;21.90;20.00;;;;;17.70;99108.00;;;;16665319;28;20269;-80
2022/08/31 20:21:00;;;;;;;25.90;23.50;;;;;17.90;99100.00;;;;16672868;28;20280;-81
2022/08/31 20:29:05;;;;;;;23.20;21.17;;;;;17.90;99094.00;;;;16668753;28;20600;-81
2022/08/31 20:37:09;;;;;;;23.97;21.70;;;;;17.80;99098.00;;;;16670660;28;20275;-81
2022/08/31 20:45:11;;;;;;;27.13;24.53;;;;;18.40;99100.00;;;;16687156;28;20304;-81
2022/08/31 20:53:16;;;;;;;35.30;32.30;;;;;18.90;99089.00;;;;16674058;28;20214;-80
2022/08/31 21:01:24;;;;;;;34.23;31.03;;;;;19.30;99097.00;;;;16638285;28;20238;-81
2022/08/31 21:09:29;;;;;;;24.90;22.60;;;;;18.20;99096.00;;;;16648260;28;20241;-80
2022/08/31 21:17:31;;;;;;;29.30;26.60;;;;;17.70;99103.00;;;;16674858;28;20245;-80
2022/08/31 21:25:43;;;;;;;27.83;25.33;;;;;17.60;99095.00;;;;16659378;28;20222;-81
2022/08/31 21:33:46;;;;;;;29.47;26.77;;;;;17.60;99094.00;;;;16667783;28;20614;-81
2022/08/31 21:41:51;;;;;;;30.97;27.83;;;;;17.70;99091.00;;;;16660742;28;20691;-81
2022/08/31 21:49:58;;;;;;;31.03;28.10;;;;;17.60;99102.00;;;;16681422;22;20778;-48
2022/08/31 21:58:02;;;;;;;31.60;28.60;;;;;17.90;99117.00;;;;16639057;28;20647;-47
2022/08/31 22:06:06;;;;;;;32.47;29.43;;;;;17.40;99113.00;;;;16674583;22;20313;-48
2022/08/31 22:14:11;;;;;;;33.97;30.67;;;;;17.40;99128.00;;;;16653132;28;20256;-47
2022/08/31 22:22:16;;;;;;;36.40;32.63;;;;;17.60;99129.00;;;;16654187;28;20226;-48
2022/08/31 22:30:20;;;;;;;33.17;29.97;;;;;17.40;99125.00;;;;16699185;28;20221;-47
2022/08/31 22:38:23;;;;;;;32.90;29.50;;;;;17.30;99122.00;;;;16718140;28;20230;-48
2022/08/31 22:46:31;;;;;;;34.87;31.37;;;;;17.50;99134.00;;;;16720391;28;20218;-48
2022/08/31 22:54:35;;;;;;;33.90;30.40;;;;;17.20;99131.00;;;;16698056;28;20228;-47
2022/08/31 23:02:44;;;;;;;30.90;27.90;;;;;17.30;99131.00;;;;16688635;28;20237;-48
2022/08/31 23:10:46;;;;;;;33.63;30.60;;;;;17.30;99135.00;;;;16664505;28;20214;-48
2022/08/31 23:18:50;;;;;;;34.63;31.20;;;;;16.80;99123.00;;;;16664519;28;20222;-49
2022/08/31 23:26:54;;;;;;;35.97;32.47;;;;;16.90;99116.00;;;;16663802;28;20215;-47
2022/08/31 23:35:01;;;;;;;36.30;31.37;;;;;17.20;99102.00;;;;16682165;28;20218;-47
2022/08/31 23:43:06;;;;;;;32.60;29.30;;;;;17.30;99086.00;;;;16666227;28;20227;-47
2022/08/31 23:51:12;;;;;;;33.17;30.07;;;;;17.00;99082.00;;;;16688942;28;20219;-49
2022/08/31 23:59:17;;;;;;;31.03;28.00;;;;;17.10;99089.00;;;;16707814;28;20221;-48
